Tabiona, Utah
Current Conditions -  °F | °C
As of 8:15 PM on Sunday 21 Dec 2014 (Local Time) from K36U Reporting Station
Unknown Precip Unknown Precip  
Wind Chill: 37°   Ceiling: 2600
Heat Index: 37°   Visibility: 5mi
Dew Point: 36°   Wind: 3mph
Humidity: 93%   Direction: 40°NE
Pressure: 29.93"   Gusts: NA
Location:  40.35°N, 110.71°W
Report Text: K36U 220315Z AUTO 04003KT 5SM UP SCT021 BKN026 OVC046 03/02 A2993 RMK AO2
Loading
Personal Weather Stations






























Interactive Weather Map New forecast layout! Learn more

10-Day Weather Forecast

Advertisements
Track Severe Weather on mobile